Spring Hill, California
Current Conditions -  °F | °C
As of 6:20 PM on Friday 28 Nov 2014 (Local Time) from KGOO Reporting Station
Overcast Overcast  
Wind Chill: 10°   Ceiling: 8500
Heat Index: 10°   Visibility: 10mi
Dew Point:   Wind: 6mph
Humidity: 62%   Direction: 120°ESE
Pressure: 29.9"   Gusts: NA
Location:  39.2183°N, 120.924°W
Report Text: KGOO 290220Z AUTO 12005KT 10SM OVC085 10/03 A2990 RMK AO1
Loading
Personal Weather Stations






























Interactive Weather Map New forecast layout! Learn more

10-Day Weather Forecast

Advertisements
Track Severe Weather on mobile